sensor_id;sensor_type;location;lat;lon;timestamp;P1;durP1;ratioP1;P2;durP2;ratioP2
75943;SDS011;64627;46.076;18.238;2022-11-15T00:01:00;64.50;;;26.98;;
75943;SDS011;64627;46.076;18.238;2022-11-15T00:03:45;64.53;;;26.95;;
75943;SDS011;64627;46.076;18.238;2022-11-15T00:06:30;61.58;;;28.00;;
75943;SDS011;64627;46.076;18.238;2022-11-15T00:09:15;63.45;;;27.60;;
75943;SDS011;64627;46.076;18.238;2022-11-15T00:11:59;67.37;;;28.10;;
75943;SDS011;64627;46.076;18.238;2022-11-15T00:14:43;66.03;;;28.12;;
75943;SDS011;64627;46.076;18.238;2022-11-15T00:17:31;65.20;;;25.67;;
75943;SDS011;64627;46.076;18.238;2022-11-15T00:20:16;68.93;;;28.23;;
75943;SDS011;64627;46.076;18.238;2022-11-15T00:23:02;58.95;;;26.35;;
75943;SDS011;64627;46.076;18.238;2022-11-15T00:25:59;64.90;;;26.55;;
75943;SDS011;64627;46.076;18.238;2022-11-15T00:28:43;63.97;;;29.23;;
75943;SDS011;64627;46.076;18.238;2022-11-15T00:31:34;66.00;;;27.27;;
75943;SDS011;64627;46.076;18.238;2022-11-15T00:34:21;66.80;;;26.40;;
75943;SDS011;64627;46.076;18.238;2022-11-15T00:37:08;61.55;;;26.92;;
75943;SDS011;64627;46.076;18.238;2022-11-15T00:39:52;60.92;;;27.48;;
75943;SDS011;64627;46.076;18.238;2022-11-15T00:42:42;60.72;;;25.08;;
75943;SDS011;64627;46.076;18.238;2022-11-15T00:45:26;53.17;;;24.73;;
75943;SDS011;64627;46.076;18.238;2022-11-15T00:48:14;38.03;;;17.42;;
75943;SDS011;64627;46.076;18.238;2022-11-15T00:50:58;32.58;;;16.58;;
75943;SDS011;64627;46.076;18.238;2022-11-15T00:53:42;34.85;;;15.68;;
75943;SDS011;64627;46.076;18.238;2022-11-15T00:56:26;29.00;;;15.45;;
75943;SDS011;64627;46.076;18.238;2022-11-15T00:59:12;36.67;;;16.90;;
75943;SDS011;64627;46.076;18.238;2022-11-15T01:01:56;32.45;;;15.98;;
75943;SDS011;64627;46.076;18.238;2022-11-15T01:04:40;34.13;;;15.82;;
75943;SDS011;64627;46.076;18.238;2022-11-15T01:07:24;31.45;;;16.17;;
75943;SDS011;64627;46.076;18.238;2022-11-15T01:10:15;35.33;;;17.08;;
75943;SDS011;64627;46.076;18.238;2022-11-15T01:13:06;29.40;;;16.60;;
75943;SDS011;64627;46.076;18.238;2022-11-15T01:15:58;33.05;;;16.42;;
75943;SDS011;64627;46.076;18.238;2022-11-15T01:18:43;30.10;;;15.27;;
75943;SDS011;64627;46.076;18.238;2022-11-15T01:21:30;34.15;;;16.12;;
75943;SDS011;64627;46.076;18.238;2022-11-15T01:24:14;33.05;;;16.40;;
75943;SDS011;64627;46.076;18.238;2022-11-15T01:27:12;32.97;;;15.13;;
75943;SDS011;64627;46.076;18.238;2022-11-15T01:29:56;34.60;;;15.40;;
75943;SDS011;64627;46.076;18.238;2022-11-15T01:32:54;31.37;;;16.00;;
75943;SDS011;64627;46.076;18.238;2022-11-15T01:35:38;27.83;;;13.98;;
75943;SDS011;64627;46.076;18.238;2022-11-15T01:38:36;33.03;;;15.65;;
75943;SDS011;64627;46.076;18.238;2022-11-15T01:41:21;33.95;;;16.45;;
75943;SDS011;64627;46.076;18.238;2022-11-15T01:47:20;29.67;;;14.98;;
75943;SDS011;64627;46.076;18.238;2022-11-15T01:53:19;30.35;;;14.38;;
75943;SDS011;64627;46.076;18.238;2022-11-15T01:56:12;31.55;;;15.48;;
75943;SDS011;64627;46.076;18.238;2022-11-15T01:59:04;29.03;;;15.87;;
75943;SDS011;64627;46.076;18.238;2022-11-15T02:01:52;31.95;;;15.75;;
75943;SDS011;64627;46.076;18.238;2022-11-15T02:04:37;30.95;;;15.27;;
75943;SDS011;64627;46.076;18.238;2022-11-15T02:07:25;29.77;;;15.50;;
75943;SDS011;64627;46.076;18.238;2022-11-15T02:10:11;35.60;;;16.25;;
75943;SDS011;64627;46.076;18.238;2022-11-15T02:13:01;31.83;;;15.38;;
75943;SDS011;64627;46.076;18.238;2022-11-15T02:15:58;29.98;;;16.33;;
75943;SDS011;64627;46.076;18.238;2022-11-15T02:25:00;37.22;;;16.70;;
75943;SDS011;64627;46.076;18.238;2022-11-15T02:31:02;33.53;;;16.65;;
75943;SDS011;64627;46.076;18.238;2022-11-15T02:36:49;33.17;;;16.37;;
75943;SDS011;64627;46.076;18.238;2022-11-15T02:39:48;32.13;;;16.37;;
75943;SDS011;64627;46.076;18.238;2022-11-15T02:42:35;31.50;;;16.80;;
75943;SDS011;64627;46.076;18.238;2022-11-15T02:45:44;32.17;;;17.55;;
75943;SDS011;64627;46.076;18.238;2022-11-15T02:48:35;33.83;;;16.30;;
75943;SDS011;64627;46.076;18.238;2022-11-15T02:51:23;33.85;;;15.27;;
75943;SDS011;64627;46.076;18.238;2022-11-15T02:54:09;28.83;;;13.70;;
75943;SDS011;64627;46.076;18.238;2022-11-15T02:56:59;31.48;;;15.80;;
75943;SDS011;64627;46.076;18.238;2022-11-15T02:59:56;32.75;;;15.68;;
75943;SDS011;64627;46.076;18.238;2022-11-15T03:03:01;35.63;;;16.33;;
75943;SDS011;64627;46.076;18.238;2022-11-15T03:09:04;32.75;;;16.20;;
75943;SDS011;64627;46.076;18.238;2022-11-15T03:12:14;33.28;;;15.32;;
75943;SDS011;64627;46.076;18.238;2022-11-15T03:15:16;33.72;;;16.40;;
75943;SDS011;64627;46.076;18.238;2022-11-15T03:18:06;35.08;;;16.60;;
75943;SDS011;64627;46.076;18.238;2022-11-15T03:21:03;37.50;;;17.40;;
75943;SDS011;64627;46.076;18.238;2022-11-15T03:23:49;33.30;;;15.90;;
75943;SDS011;64627;46.076;18.238;2022-11-15T03:26:39;37.83;;;22.00;;
75943;SDS011;64627;46.076;18.238;2022-11-15T03:29:26;32.97;;;16.52;;
75943;SDS011;64627;46.076;18.238;2022-11-15T03:32:20;35.78;;;17.23;;
75943;SDS011;64627;46.076;18.238;2022-11-15T03:35:12;34.38;;;16.83;;
75943;SDS011;64627;46.076;18.238;2022-11-15T03:41:04;36.17;;;17.45;;
75943;SDS011;64627;46.076;18.238;2022-11-15T03:47:00;35.40;;;17.85;;
75943;SDS011;64627;46.076;18.238;2022-11-15T03:50:17;35.83;;;16.50;;
75943;SDS011;64627;46.076;18.238;2022-11-15T03:53:03;37.22;;;17.20;;
75943;SDS011;64627;46.076;18.238;2022-11-15T03:55:47;35.35;;;17.10;;
75943;SDS011;64627;46.076;18.238;2022-11-15T03:58:31;38.50;;;17.67;;
75943;SDS011;64627;46.076;18.238;2022-11-15T04:01:17;37.95;;;17.95;;
75943;SDS011;64627;46.076;18.238;2022-11-15T04:04:01;36.50;;;17.10;;
75943;SDS011;64627;46.076;18.238;2022-11-15T04:06:47;38.20;;;18.52;;
75943;SDS011;64627;46.076;18.238;2022-11-15T04:09:31;34.67;;;17.52;;
75943;SDS011;64627;46.076;18.238;2022-11-15T04:12:16;36.53;;;18.27;;
75943;SDS011;64627;46.076;18.238;2022-11-15T04:15:24;36.72;;;17.12;;
75943;SDS011;64627;46.076;18.238;2022-11-15T04:18:09;35.28;;;16.73;;
75943;SDS011;64627;46.076;18.238;2022-11-15T04:20:57;38.25;;;18.37;;
75943;SDS011;64627;46.076;18.238;2022-11-15T04:24:01;35.40;;;17.12;;
75943;SDS011;64627;46.076;18.238;2022-11-15T04:26:51;34.70;;;18.30;;
75943;SDS011;64627;46.076;18.238;2022-11-15T04:29:35;37.92;;;19.02;;
75943;SDS011;64627;46.076;18.238;2022-11-15T04:32:24;39.10;;;17.92;;
75943;SDS011;64627;46.076;18.238;2022-11-15T04:35:08;36.10;;;17.73;;
75943;SDS011;64627;46.076;18.238;2022-11-15T04:37:52;37.17;;;17.08;;
75943;SDS011;64627;46.076;18.238;2022-11-15T04:40:37;44.88;;;20.95;;
75943;SDS011;64627;46.076;18.238;2022-11-15T04:43:22;40.83;;;19.73;;
75943;SDS011;64627;46.076;18.238;2022-11-15T04:46:06;39.28;;;18.17;;
75943;SDS011;64627;46.076;18.238;2022-11-15T04:48:50;35.72;;;17.90;;
75943;SDS011;64627;46.076;18.238;2022-11-15T04:51:35;32.85;;;17.02;;
75943;SDS011;64627;46.076;18.238;2022-11-15T04:54:19;39.58;;;18.40;;
75943;SDS011;64627;46.076;18.238;2022-11-15T04:57:03;38.53;;;18.27;;
75943;SDS011;64627;46.076;18.238;2022-11-15T04:59:47;38.58;;;17.95;;
75943;SDS011;64627;46.076;18.238;2022-11-15T05:02:31;36.65;;;16.92;;
75943;SDS011;64627;46.076;18.238;2022-11-15T05:05:34;35.38;;;17.02;;
75943;SDS011;64627;46.076;18.238;2022-11-15T05:08:18;33.60;;;16.40;;
75943;SDS011;64627;46.076;18.238;2022-11-15T05:11:02;36.70;;;18.12;;
75943;SDS011;64627;46.076;18.238;2022-11-15T05:13:47;38.20;;;18.33;;
75943;SDS011;64627;46.076;18.238;2022-11-15T05:16:32;38.25;;;19.67;;
75943;SDS011;64627;46.076;18.238;2022-11-15T05:19:17;37.45;;;18.33;;
75943;SDS011;64627;46.076;18.238;2022-11-15T05:22:03;37.05;;;18.15;;
75943;SDS011;64627;46.076;18.238;2022-11-15T05:24:47;37.22;;;19.23;;
75943;SDS011;64627;46.076;18.238;2022-11-15T05:27:32;37.10;;;18.73;;
75943;SDS011;64627;46.076;18.238;2022-11-15T05:30:17;50.92;;;24.85;;
75943;SDS011;64627;46.076;18.238;2022-11-15T05:33:02;48.22;;;20.35;;
75943;SDS011;64627;46.076;18.238;2022-11-15T05:35:48;40.20;;;18.73;;
75943;SDS011;64627;46.076;18.238;2022-11-15T05:38:35;44.83;;;19.95;;
75943;SDS011;64627;46.076;18.238;2022-11-15T05:41:20;38.85;;;20.30;;
75943;SDS011;64627;46.076;18.238;2022-11-15T05:44:12;42.25;;;20.00;;
75943;SDS011;64627;46.076;18.238;2022-11-15T05:46:58;44.88;;;19.75;;
75943;SDS011;64627;46.076;18.238;2022-11-15T05:49:43;37.15;;;18.25;;
75943;SDS011;64627;46.076;18.238;2022-11-15T05:52:29;45.25;;;21.98;;
75943;SDS011;64627;46.076;18.238;2022-11-15T05:55:22;36.95;;;18.23;;
75943;SDS011;64627;46.076;18.238;2022-11-15T05:58:10;39.38;;;19.08;;
75943;SDS011;64627;46.076;18.238;2022-11-15T06:00:55;42.65;;;20.88;;
75943;SDS011;64627;46.076;18.238;2022-11-15T06:03:39;38.85;;;19.42;;
75943;SDS011;64627;46.076;18.238;2022-11-15T06:06:23;42.08;;;21.77;;
75943;SDS011;64627;46.076;18.238;2022-11-15T06:09:07;40.63;;;19.15;;
75943;SDS011;64627;46.076;18.238;2022-11-15T06:12:06;42.10;;;20.08;;
75943;SDS011;64627;46.076;18.238;2022-11-15T06:14:50;41.75;;;22.00;;
75943;SDS011;64627;46.076;18.238;2022-11-15T06:20:29;47.58;;;23.95;;
75943;SDS011;64627;46.076;18.238;2022-11-15T06:23:17;48.55;;;23.38;;
75943;SDS011;64627;46.076;18.238;2022-11-15T06:26:02;52.08;;;25.20;;
75943;SDS011;64627;46.076;18.238;2022-11-15T06:28:51;46.97;;;22.60;;
75943;SDS011;64627;46.076;18.238;2022-11-15T06:31:35;46.55;;;21.67;;
75943;SDS011;64627;46.076;18.238;2022-11-15T06:34:27;49.95;;;23.65;;
75943;SDS011;64627;46.076;18.238;2022-11-15T06:37:18;40.22;;;16.83;;
75943;SDS011;64627;46.076;18.238;2022-11-15T06:40:03;39.40;;;17.60;;
75943;SDS011;64627;46.076;18.238;2022-11-15T06:42:50;39.17;;;19.37;;
75943;SDS011;64627;46.076;18.238;2022-11-15T06:45:33;35.67;;;17.33;;
75943;SDS011;64627;46.076;18.238;2022-11-15T06:48:18;39.90;;;18.08;;
75943;SDS011;64627;46.076;18.238;2022-11-15T06:51:03;41.50;;;19.17;;
75943;SDS011;64627;46.076;18.238;2022-11-15T06:53:48;46.35;;;22.33;;
75943;SDS011;64627;46.076;18.238;2022-11-15T06:56:33;48.30;;;25.40;;
75943;SDS011;64627;46.076;18.238;2022-11-15T06:59:19;57.22;;;26.65;;
75943;SDS011;64627;46.076;18.238;2022-11-15T07:02:03;48.83;;;24.20;;
75943;SDS011;64627;46.076;18.238;2022-11-15T07:05:01;44.78;;;22.92;;
75943;SDS011;64627;46.076;18.238;2022-11-15T07:07:55;50.83;;;21.85;;
75943;SDS011;64627;46.076;18.238;2022-11-15T07:10:53;46.83;;;20.42;;
75943;SDS011;64627;46.076;18.238;2022-11-15T07:13:56;42.95;;;19.40;;
75943;SDS011;64627;46.076;18.238;2022-11-15T07:16:56;48.92;;;24.30;;
75943;SDS011;64627;46.076;18.238;2022-11-15T07:19:51;50.90;;;24.17;;
75943;SDS011;64627;46.076;18.238;2022-11-15T07:23:00;45.90;;;22.73;;
75943;SDS011;64627;46.076;18.238;2022-11-15T07:25:48;41.90;;;21.75;;
75943;SDS011;64627;46.076;18.238;2022-11-15T07:28:33;42.00;;;20.48;;
75943;SDS011;64627;46.076;18.238;2022-11-15T07:31:29;40.20;;;20.27;;
75943;SDS011;64627;46.076;18.238;2022-11-15T07:34:16;50.38;;;23.92;;
75943;SDS011;64627;46.076;18.238;2022-11-15T07:37:15;54.45;;;23.48;;
75943;SDS011;64627;46.076;18.238;2022-11-15T07:43:47;52.17;;;22.33;;
75943;SDS011;64627;46.076;18.238;2022-11-15T07:46:53;47.50;;;23.27;;
75943;SDS011;64627;46.076;18.238;2022-11-15T07:49:49;54.83;;;24.17;;
75943;SDS011;64627;46.076;18.238;2022-11-15T07:52:53;52.97;;;23.75;;
75943;SDS011;64627;46.076;18.238;2022-11-15T07:58:49;49.15;;;23.42;;
75943;SDS011;64627;46.076;18.238;2022-11-15T08:01:53;57.25;;;27.00;;
75943;SDS011;64627;46.076;18.238;2022-11-15T08:08:28;48.90;;;22.85;;
75943;SDS011;64627;46.076;18.238;2022-11-15T08:21:33;62.83;;;27.98;;
75943;SDS011;64627;46.076;18.238;2022-11-15T08:44:45;48.25;;;22.67;;
75943;SDS011;64627;46.076;18.238;2022-11-15T08:47:37;57.45;;;22.65;;
75943;SDS011;64627;46.076;18.238;2022-11-15T08:50:34;40.58;;;20.00;;
75943;SDS011;64627;46.076;18.238;2022-11-15T08:53:35;47.80;;;20.70;;
75943;SDS011;64627;46.076;18.238;2022-11-15T08:59:50;45.30;;;21.12;;
75943;SDS011;64627;46.076;18.238;2022-11-15T09:05:59;44.20;;;22.73;;
75943;SDS011;64627;46.076;18.238;2022-11-15T09:18:50;49.15;;;23.48;;
75943;SDS011;64627;46.076;18.238;2022-11-15T09:24:55;56.25;;;23.38;;
75943;SDS011;64627;46.076;18.238;2022-11-15T09:27:42;52.60;;;23.23;;
75943;SDS011;64627;46.076;18.238;2022-11-15T09:30:27;48.70;;;22.35;;
75943;SDS011;64627;46.076;18.238;2022-11-15T09:33:24;45.40;;;22.15;;
75943;SDS011;64627;46.076;18.238;2022-11-15T09:36:17;45.90;;;20.52;;
75943;SDS011;64627;46.076;18.238;2022-11-15T09:42:38;63.87;;;24.20;;
75943;SDS011;64627;46.076;18.238;2022-11-15T09:49:27;51.28;;;21.30;;
75943;SDS011;64627;46.076;18.238;2022-11-15T09:52:27;55.20;;;21.87;;
75943;SDS011;64627;46.076;18.238;2022-11-15T10:38:31;58.35;;;25.23;;
75943;SDS011;64627;46.076;18.238;2022-11-15T11:11:07;59.95;;;25.10;;
75943;SDS011;64627;46.076;18.238;2022-11-15T11:27:28;66.95;;;26.60;;
75943;SDS011;64627;46.076;18.238;2022-11-15T11:56:39;65.57;;;25.35;;
75943;SDS011;64627;46.076;18.238;2022-11-15T12:03:07;67.85;;;26.05;;
75943;SDS011;64627;46.076;18.238;2022-11-15T12:15:50;71.18;;;27.55;;
75943;SDS011;64627;46.076;18.238;2022-11-15T12:30:31;65.07;;;25.62;;
75943;SDS011;64627;46.076;18.238;2022-11-15T12:36:43;61.05;;;23.35;;
75943;SDS011;64627;46.076;18.238;2022-11-15T12:43:37;57.92;;;23.08;;
75943;SDS011;64627;46.076;18.238;2022-11-15T12:46:04;67.43;;;27.05;;
75943;SDS011;64627;46.076;18.238;2022-11-15T12:48:54;65.60;;;26.25;;
75943;SDS011;64627;46.076;18.238;2022-11-15T13:03:18;74.47;;;25.67;;
75943;SDS011;64627;46.076;18.238;2022-11-15T13:18:23;67.18;;;25.77;;
75943;SDS011;64627;46.076;18.238;2022-11-15T13:21:21;66.68;;;24.75;;
75943;SDS011;64627;46.076;18.238;2022-11-15T13:24:28;65.55;;;23.60;;
75943;SDS011;64627;46.076;18.238;2022-11-15T13:27:17;64.93;;;25.27;;
75943;SDS011;64627;46.076;18.238;2022-11-15T13:30:03;57.72;;;21.73;;
75943;SDS011;64627;46.076;18.238;2022-11-15T13:32:54;64.07;;;23.05;;
75943;SDS011;64627;46.076;18.238;2022-11-15T13:35:45;60.35;;;21.30;;
75943;SDS011;64627;46.076;18.238;2022-11-15T13:38:32;59.30;;;22.75;;
75943;SDS011;64627;46.076;18.238;2022-11-15T13:44:18;69.43;;;24.73;;
75943;SDS011;64627;46.076;18.238;2022-11-15T13:47:14;67.12;;;25.50;;
75943;SDS011;64627;46.076;18.238;2022-11-15T13:49:59;67.53;;;26.52;;
75943;SDS011;64627;46.076;18.238;2022-11-15T13:52:47;64.43;;;24.70;;
75943;SDS011;64627;46.076;18.238;2022-11-15T13:55:35;78.55;;;28.30;;
75943;SDS011;64627;46.076;18.238;2022-11-15T13:58:29;67.30;;;25.83;;
75943;SDS011;64627;46.076;18.238;2022-11-15T14:01:14;68.82;;;25.20;;
75943;SDS011;64627;46.076;18.238;2022-11-15T14:04:01;80.20;;;28.30;;
75943;SDS011;64627;46.076;18.238;2022-11-15T14:06:48;71.78;;;26.23;;
75943;SDS011;64627;46.076;18.238;2022-11-15T14:09:38;72.20;;;24.92;;
75943;SDS011;64627;46.076;18.238;2022-11-15T14:12:36;66.45;;;25.73;;
75943;SDS011;64627;46.076;18.238;2022-11-15T14:15:34;77.30;;;25.45;;
75943;SDS011;64627;46.076;18.238;2022-11-15T14:25:19;68.55;;;24.85;;
75943;SDS011;64627;46.076;18.238;2022-11-15T14:31:20;67.28;;;23.75;;
75943;SDS011;64627;46.076;18.238;2022-11-15T14:34:08;69.45;;;25.20;;
75943;SDS011;64627;46.076;18.238;2022-11-15T14:36:52;63.33;;;22.37;;
75943;SDS011;64627;46.076;18.238;2022-11-15T14:39:39;66.82;;;23.77;;
75943;SDS011;64627;46.076;18.238;2022-11-15T14:42:27;63.97;;;23.17;;
75943;SDS011;64627;46.076;18.238;2022-11-15T14:45:13;58.00;;;20.73;;
75943;SDS011;64627;46.076;18.238;2022-11-15T14:47:59;63.03;;;23.45;;
75943;SDS011;64627;46.076;18.238;2022-11-15T14:50:43;66.78;;;22.58;;
75943;SDS011;64627;46.076;18.238;2022-11-15T14:53:37;59.25;;;22.13;;
75943;SDS011;64627;46.076;18.238;2022-11-15T14:56:21;61.63;;;20.92;;
75943;SDS011;64627;46.076;18.238;2022-11-15T14:59:06;66.85;;;23.38;;
75943;SDS011;64627;46.076;18.238;2022-11-15T15:01:50;59.65;;;20.92;;
75943;SDS011;64627;46.076;18.238;2022-11-15T15:04:34;63.78;;;23.67;;
75943;SDS011;64627;46.076;18.238;2022-11-15T15:07:24;62.90;;;21.92;;
75943;SDS011;64627;46.076;18.238;2022-11-15T15:10:16;62.42;;;22.60;;
75943;SDS011;64627;46.076;18.238;2022-11-15T15:13:23;58.30;;;19.85;;
75943;SDS011;64627;46.076;18.238;2022-11-15T15:16:21;59.63;;;19.55;;
75943;SDS011;64627;46.076;18.238;2022-11-15T15:19:05;63.63;;;22.08;;
75943;SDS011;64627;46.076;18.238;2022-11-15T15:22:04;59.92;;;22.67;;
75943;SDS011;64627;46.076;18.238;2022-11-15T15:24:55;65.40;;;22.25;;
75943;SDS011;64627;46.076;18.238;2022-11-15T15:27:41;63.97;;;22.98;;
75943;SDS011;64627;46.076;18.238;2022-11-15T15:30:26;68.37;;;24.27;;
75943;SDS011;64627;46.076;18.238;2022-11-15T15:33:17;65.57;;;25.80;;
75943;SDS011;64627;46.076;18.238;2022-11-15T15:36:01;57.47;;;20.40;;
75943;SDS011;64627;46.076;18.238;2022-11-15T15:38:49;72.78;;;22.37;;
75943;SDS011;64627;46.076;18.238;2022-11-15T15:41:34;58.50;;;21.65;;
75943;SDS011;64627;46.076;18.238;2022-11-15T15:44:19;58.72;;;21.12;;
75943;SDS011;64627;46.076;18.238;2022-11-15T15:47:20;63.25;;;22.35;;
75943;SDS011;64627;46.076;18.238;2022-11-15T15:50:17;73.00;;;25.08;;
75943;SDS011;64627;46.076;18.238;2022-11-15T15:53:11;57.38;;;19.95;;
75943;SDS011;64627;46.076;18.238;2022-11-15T15:55:56;59.50;;;22.10;;
75943;SDS011;64627;46.076;18.238;2022-11-15T15:58:44;61.25;;;20.37;;
75943;SDS011;64627;46.076;18.238;2022-11-15T16:01:28;64.72;;;21.60;;
75943;SDS011;64627;46.076;18.238;2022-11-15T16:04:13;54.13;;;20.75;;
75943;SDS011;64627;46.076;18.238;2022-11-15T16:06:58;56.85;;;20.83;;
75943;SDS011;64627;46.076;18.238;2022-11-15T16:09:47;62.72;;;21.12;;
75943;SDS011;64627;46.076;18.238;2022-11-15T16:12:47;52.92;;;19.23;;
75943;SDS011;64627;46.076;18.238;2022-11-15T16:15:47;58.50;;;21.17;;
75943;SDS011;64627;46.076;18.238;2022-11-15T16:18:33;64.82;;;23.95;;
75943;SDS011;64627;46.076;18.238;2022-11-15T16:21:18;58.28;;;20.85;;
75943;SDS011;64627;46.076;18.238;2022-11-15T16:24:03;69.30;;;28.62;;
75943;SDS011;64627;46.076;18.238;2022-11-15T16:26:49;63.83;;;24.33;;
75943;SDS011;64627;46.076;18.238;2022-11-15T16:29:33;71.57;;;28.42;;
75943;SDS011;64627;46.076;18.238;2022-11-15T16:32:21;71.78;;;26.50;;
75943;SDS011;64627;46.076;18.238;2022-11-15T16:35:09;74.20;;;26.92;;
75943;SDS011;64627;46.076;18.238;2022-11-15T16:37:57;81.10;;;29.58;;
75943;SDS011;64627;46.076;18.238;2022-11-15T16:40:55;68.68;;;27.62;;
75943;SDS011;64627;46.076;18.238;2022-11-15T16:43:40;82.62;;;29.67;;
75943;SDS011;64627;46.076;18.238;2022-11-15T16:46:42;80.75;;;30.60;;
75943;SDS011;64627;46.076;18.238;2022-11-15T16:49:34;75.12;;;28.00;;
75943;SDS011;64627;46.076;18.238;2022-11-15T16:52:40;66.07;;;24.92;;
75943;SDS011;64627;46.076;18.238;2022-11-15T16:55:26;73.87;;;31.50;;
75943;SDS011;64627;46.076;18.238;2022-11-15T16:58:15;66.40;;;25.12;;
75943;SDS011;64627;46.076;18.238;2022-11-15T17:00:59;83.68;;;29.45;;
75943;SDS011;64627;46.076;18.238;2022-11-15T17:03:55;73.75;;;27.98;;
75943;SDS011;64627;46.076;18.238;2022-11-15T17:06:39;60.25;;;22.62;;
75943;SDS011;64627;46.076;18.238;2022-11-15T17:09:30;69.00;;;26.12;;
75943;SDS011;64627;46.076;18.238;2022-11-15T17:12:16;60.10;;;23.02;;
75943;SDS011;64627;46.076;18.238;2022-11-15T17:15:00;53.87;;;21.40;;
75943;SDS011;64627;46.076;18.238;2022-11-15T17:17:51;56.25;;;21.92;;
75943;SDS011;64627;46.076;18.238;2022-11-15T17:20:40;48.33;;;19.40;;
75943;SDS011;64627;46.076;18.238;2022-11-15T17:23:26;59.83;;;23.02;;
75943;SDS011;64627;46.076;18.238;2022-11-15T17:26:10;43.45;;;17.95;;
75943;SDS011;64627;46.076;18.238;2022-11-15T17:28:56;45.83;;;17.48;;
75943;SDS011;64627;46.076;18.238;2022-11-15T17:31:43;40.75;;;16.73;;
75943;SDS011;64627;46.076;18.238;2022-11-15T17:34:33;42.95;;;16.83;;
75943;SDS011;64627;46.076;18.238;2022-11-15T17:37:24;49.90;;;18.67;;
75943;SDS011;64627;46.076;18.238;2022-11-15T17:40:14;49.58;;;17.83;;
75943;SDS011;64627;46.076;18.238;2022-11-15T17:43:04;53.83;;;22.37;;
75943;SDS011;64627;46.076;18.238;2022-11-15T17:45:56;44.08;;;17.62;;
75943;SDS011;64627;46.076;18.238;2022-11-15T17:48:40;41.30;;;17.27;;
75943;SDS011;64627;46.076;18.238;2022-11-15T17:51:28;54.00;;;20.35;;
75943;SDS011;64627;46.076;18.238;2022-11-15T17:54:12;61.20;;;25.17;;
75943;SDS011;64627;46.076;18.238;2022-11-15T17:57:07;49.90;;;18.42;;
75943;SDS011;64627;46.076;18.238;2022-11-15T17:59:50;51.33;;;19.42;;
75943;SDS011;64627;46.076;18.238;2022-11-15T18:02:35;52.35;;;19.67;;
75943;SDS011;64627;46.076;18.238;2022-11-15T18:05:19;47.78;;;18.80;;
75943;SDS011;64627;46.076;18.238;2022-11-15T18:08:04;42.47;;;16.55;;
75943;SDS011;64627;46.076;18.238;2022-11-15T18:11:05;45.28;;;19.33;;
75943;SDS011;64627;46.076;18.238;2022-11-15T18:13:55;52.47;;;19.37;;
75943;SDS011;64627;46.076;18.238;2022-11-15T18:16:40;51.63;;;20.05;;
75943;SDS011;64627;46.076;18.238;2022-11-15T18:19:38;60.78;;;21.37;;
75943;SDS011;64627;46.076;18.238;2022-11-15T18:22:28;54.97;;;20.98;;
75943;SDS011;64627;46.076;18.238;2022-11-15T18:25:16;56.75;;;21.65;;
75943;SDS011;64627;46.076;18.238;2022-11-15T18:28:01;56.00;;;20.02;;
75943;SDS011;64627;46.076;18.238;2022-11-15T18:30:51;58.87;;;20.90;;
75943;SDS011;64627;46.076;18.238;2022-11-15T18:33:36;55.78;;;20.88;;
75943;SDS011;64627;46.076;18.238;2022-11-15T18:36:28;55.72;;;19.87;;
75943;SDS011;64627;46.076;18.238;2022-11-15T18:39:20;58.15;;;19.15;;
75943;SDS011;64627;46.076;18.238;2022-11-15T18:42:11;52.33;;;19.12;;
75943;SDS011;64627;46.076;18.238;2022-11-15T18:45:02;62.90;;;22.77;;
75943;SDS011;64627;46.076;18.238;2022-11-15T18:47:53;62.22;;;20.45;;
75943;SDS011;64627;46.076;18.238;2022-11-15T18:50:43;54.45;;;19.35;;
75943;SDS011;64627;46.076;18.238;2022-11-15T18:53:27;64.40;;;22.35;;
75943;SDS011;64627;46.076;18.238;2022-11-15T18:56:17;68.82;;;22.95;;
75943;SDS011;64627;46.076;18.238;2022-11-15T18:59:02;65.20;;;22.60;;
75943;SDS011;64627;46.076;18.238;2022-11-15T19:01:50;53.17;;;17.35;;
75943;SDS011;64627;46.076;18.238;2022-11-15T19:04:36;57.05;;;18.65;;
75943;SDS011;64627;46.076;18.238;2022-11-15T19:07:20;59.88;;;20.00;;
75943;SDS011;64627;46.076;18.238;2022-11-15T19:10:04;56.97;;;19.95;;
75943;SDS011;64627;46.076;18.238;2022-11-15T19:12:50;54.60;;;17.60;;
75943;SDS011;64627;46.076;18.238;2022-11-15T19:15:34;52.45;;;18.98;;
75943;SDS011;64627;46.076;18.238;2022-11-15T19:18:19;61.95;;;20.33;;
75943;SDS011;64627;46.076;18.238;2022-11-15T19:21:08;55.78;;;18.60;;
75943;SDS011;64627;46.076;18.238;2022-11-15T19:24:03;59.53;;;19.90;;
75943;SDS011;64627;46.076;18.238;2022-11-15T19:26:48;53.55;;;17.62;;
75943;SDS011;64627;46.076;18.238;2022-11-15T19:29:32;62.15;;;20.45;;
75943;SDS011;64627;46.076;18.238;2022-11-15T19:32:24;54.88;;;19.50;;
75943;SDS011;64627;46.076;18.238;2022-11-15T19:35:21;63.72;;;20.37;;
75943;SDS011;64627;46.076;18.238;2022-11-15T19:38:07;56.13;;;18.98;;
75943;SDS011;64627;46.076;18.238;2022-11-15T19:41:06;62.20;;;19.80;;
75943;SDS011;64627;46.076;18.238;2022-11-15T19:43:53;64.15;;;22.17;;
75943;SDS011;64627;46.076;18.238;2022-11-15T19:46:38;61.47;;;18.75;;
75943;SDS011;64627;46.076;18.238;2022-11-15T19:49:35;66.85;;;22.30;;
75943;SDS011;64627;46.076;18.238;2022-11-15T19:52:29;70.05;;;22.33;;
75943;SDS011;64627;46.076;18.238;2022-11-15T19:55:16;59.10;;;19.25;;
75943;SDS011;64627;46.076;18.238;2022-11-15T19:58:00;71.00;;;21.42;;
75943;SDS011;64627;46.076;18.238;2022-11-15T20:00:47;71.78;;;21.50;;
75943;SDS011;64627;46.076;18.238;2022-11-15T20:03:38;76.80;;;24.12;;
75943;SDS011;64627;46.076;18.238;2022-11-15T20:06:37;66.37;;;21.92;;
75943;SDS011;64627;46.076;18.238;2022-11-15T20:09:24;70.05;;;23.55;;
75943;SDS011;64627;46.076;18.238;2022-11-15T20:12:15;70.87;;;22.50;;
75943;SDS011;64627;46.076;18.238;2022-11-15T20:14:59;71.60;;;23.08;;
75943;SDS011;64627;46.076;18.238;2022-11-15T20:17:47;77.32;;;24.15;;
75943;SDS011;64627;46.076;18.238;2022-11-15T20:20:31;82.37;;;25.25;;
75943;SDS011;64627;46.076;18.238;2022-11-15T20:23:23;75.35;;;23.08;;
75943;SDS011;64627;46.076;18.238;2022-11-15T20:26:13;80.18;;;24.25;;
75943;SDS011;64627;46.076;18.238;2022-11-15T20:29:01;79.97;;;24.48;;
75943;SDS011;64627;46.076;18.238;2022-11-15T20:31:45;74.87;;;23.85;;
75943;SDS011;64627;46.076;18.238;2022-11-15T20:34:44;79.80;;;25.17;;
75943;SDS011;64627;46.076;18.238;2022-11-15T20:37:35;80.40;;;25.05;;
75943;SDS011;64627;46.076;18.238;2022-11-15T20:40:21;84.65;;;28.58;;
75943;SDS011;64627;46.076;18.238;2022-11-15T20:43:08;84.00;;;25.77;;
75943;SDS011;64627;46.076;18.238;2022-11-15T20:45:55;78.87;;;24.23;;
75943;SDS011;64627;46.076;18.238;2022-11-15T20:48:39;75.87;;;24.63;;
75943;SDS011;64627;46.076;18.238;2022-11-15T20:51:24;75.35;;;23.87;;
75943;SDS011;64627;46.076;18.238;2022-11-15T20:54:08;78.37;;;25.12;;
75943;SDS011;64627;46.076;18.238;2022-11-15T20:57:00;75.62;;;24.92;;